Dubai International Airport (DXB/OMDB)


Airport Information
Location: Dubai,
Coordinates: 25.2528 / 55.3644
Field Elevation: 62ft
Longest Runway: 14,597ft
ILS Approaches: YES
Landing Fees: $4,096 per flight
Jet A Price: $0.52/lbs

Current Weather
METAR: OMDB 011000Z 32011KT 290V350 CAVOK 35/23 Q1006 NOSIG
TAF: TAF OMDB 010500Z 0106/0212 15006KT 8000 NSC BECMG 0107/0109 30012KT BECMG 0115/0117 18005KT PROB30 0200/0204 3000 BR BECMG 0206/0208 30012KT

No chart available
Flight Arriving
CPX538 EDDK - Cologne Bonn Airport
Germany Cologne, Germany
CPX816 WSSS - Changi International Airport
Singapore Singapore, Singapore
CPX845 VHHH - Chek Lap Kok International
Hong Kong Hong Kong, Hong Kong
Flight Aircraft Departing
CPX508
EDDK - Cologne Bonn Airport
Germany Cologne, Germany



Recent Arrivals
Date Flight Type Depart
07/23/2022 CPX508 B744 Cologne Bonn Airport (EDDK)
07/03/2022 CPX15 B744 Cologne Bonn Airport (EDDK)
04/16/2022 CPX15 B744 Cologne Bonn Airport (EDDK)
Recent Departures
Date Flight Type Arrive
07/24/2022 CPX845 B744 Chek Lap Kok International (VHHH)
07/04/2022 CPX597 B744 Chek Lap Kok International (VHHH)
04/17/2022 CPX597 B744 Chek Lap Kok International (VHHH)